Time,TemperatureF,DewpointF,PressureIn,WindDirection,WindDirectionDegrees,WindSpeedMPH,WindSpeedGustMPH,Humidity,HourlyPrecipIn,Conditions,Clouds,dailyrainin,SoftwareType,DateUTC
2013-05-03 10:00:00,60.2,24.2,30.09,WNW,303,3.0,6.0,25,0.00,CLR,CLR,0.00,WeatherDisplay:10.37,2013-05-03 09:00:00,
2013-05-03 10:15:00,58.1,21.5,30.06,WNW,303,5.0,8.0,24,0.00,CLR,CLR,0.00,WeatherDisplay:10.37,2013-05-03 09:15:00,
2013-05-03 10:30:00,59.1,22.3,30.06,WNW,299,3.0,8.0,24,0.00,CLR,CLR,0.00,WeatherDisplay:10.37,2013-05-03 09:30:00,
2013-05-03 10:45:00,61.3,18.7,30.09,WNW,286,5.0,9.0,19,0.00,CLR,CLR,0.00,WeatherDisplay:10.37,2013-05-03 09:45:00,
2013-05-03 10:50:00,60.7,18.2,30.09,WNW,292,3.0,6.0,19,0.00,CLR,CLR,0.00,WeatherDisplay:10.37,2013-05-03 09:50:00,
2013-05-03 11:00:00,60.6,15.5,30.09,WNW,298,3.0,7.0,17,0.00,CLR,CLR,0.00,WeatherDisplay:10.37,2013-05-03 10:00:00,
2013-05-03 11:15:00,60.9,14.3,30.09,WNW,293,3.0,8.0,16,0.00,CLR,CLR,0.00,WeatherDisplay:10.37,2013-05-03 10:15:00,
2013-05-03 11:30:00,59.7,14.8,30.09,WNW,298,5.0,10.0,17,0.00,CLR,CLR,0.00,WeatherDisplay:10.37,2013-05-03 10:30:00,
2013-05-03 11:45:00,58.5,13.8,30.09,WNW,289,6.0,9.0,17,0.00,CLR,CLR,0.00,WeatherDisplay:10.37,2013-05-03 10:45:00,
2013-05-03 12:00:00,58.6,16.4,30.06,NW,305,2.0,8.0,19,0.00,CLR,CLR,0.00,WeatherDisplay:10.37,2013-05-03 11:00:00,
2013-05-03 12:15:00,59.8,17.4,30.06,NW,305,5.0,10.0,19,0.00,CLR,CLR,0.00,WeatherDisplay:10.37,2013-05-03 11:15:00,
2013-05-03 12:30:00,61.0,14.5,30.06,NW,307,5.0,9.0,16,0.00,CLR,CLR,0.00,WeatherDisplay:10.37,2013-05-03 11:30:00,
2013-05-03 12:45:00,61.1,14.5,30.06,WNW,287,5.0,9.0,16,0.00,CLR,CLR,0.00,WeatherDisplay:10.37,2013-05-03 11:45:00,
2013-05-03 13:00:00,60.2,15.1,30.06,WNW,291,7.0,11.0,17,0.00,CLR,CLR,0.00,WeatherDisplay:10.37,2013-05-03 12:00:00,
2013-05-03 13:15:00,60.4,15.4,30.06,NW,307,6.0,12.0,17,0.00,CLR,CLR,0.00,WeatherDisplay:10.37,2013-05-03 12:15:00,
2013-05-03 13:30:00,60.7,15.6,30.06,WNW,288,7.0,10.0,17,0.00,CLR,CLR,0.00,WeatherDisplay:10.37,2013-05-03 12:30:00,
2013-05-03 13:45:00,62.1,15.3,30.06,NW,307,3.0,12.0,16,0.00,CLR,CLR,0.00,WeatherDisplay:10.37,2013-05-03 12:45:00,
2013-05-03 14:00:00,62.2,15.4,30.06,WNW,284,5.0,10.0,16,0.00,CLR,CLR,0.00,WeatherDisplay:10.37,2013-05-03 13:00:00,
2013-05-03 14:15:00,61.7,15.0,30.06,WNW,284,6.0,10.0,16,0.00,CLR,CLR,0.00,WeatherDisplay:10.37,2013-05-03 13:15:00,
2013-05-03 14:30:00,60.9,14.3,30.06,WNW,298,5.0,9.0,16,0.00,CLR,CLR,0.00,WeatherDisplay:10.37,2013-05-03 13:30:00,
2013-05-03 14:45:00,60.3,15.2,30.06,WNW,286,7.0,12.0,17,0.00,CLR,CLR,0.00,WeatherDisplay:10.37,2013-05-03 13:45:00,
2013-05-03 15:00:00,60.3,15.2,30.06,WNW,301,5.0,9.0,17,0.00,CLR,CLR,0.00,WeatherDisplay:10.37,2013-05-03 14:00:00,
2013-05-03 15:15:00,59.4,14.5,30.03,WNW,296,3.0,11.0,17,0.00,CLR,CLR,0.00,WeatherDisplay:10.37,2013-05-03 14:15:00,
2013-05-03 15:30:00,58.6,13.9,30.03,WNW,295,3.0,9.0,17,0.00,CLR,CLR,0.00,WeatherDisplay:10.37,2013-05-03 14:30:00,
2013-05-03 15:45:00,57.4,12.9,30.03,WNW,300,6.0,10.0,17,0.00,CLR,CLR,0.00,WeatherDisplay:10.37,2013-05-03 14:45:00,
2013-05-03 16:00:00,56.8,12.4,30.03,NW,311,6.0,10.0,17,0.00,CLR,CLR,0.00,WeatherDisplay:10.37,2013-05-03 15:00:00,
2013-05-03 16:15:00,57.1,16.3,30.03,WNW,303,2.0,10.0,20,0.00,CLR,CLR,0.00,WeatherDisplay:10.37,2013-05-03 15:15:00,
2013-05-03 16:30:00,57.0,18.4,30.03,WNW,289,5.0,9.0,22,0.00,CLR,CLR,0.00,WeatherDisplay:10.37,2013-05-03 15:30:00,
2013-05-03 16:45:00,56.8,17.3,30.03,WNW,286,6.0,10.0,21,0.00,CLR,CLR,0.00,WeatherDisplay:10.37,2013-05-03 15:45:00,
2013-05-03 17:00:00,56.5,15.8,30.03,WNW,292,6.0,12.0,20,0.00,CLR,CLR,0.00,WeatherDisplay:10.37,2013-05-03 16:00:00,
2013-05-03 17:15:00,56.3,15.7,30.03,WNW,298,5.0,10.0,20,0.00,CLR,CLR,0.00,WeatherDisplay:10.37,2013-05-03 16:15:00,
2013-05-03 17:30:00,56.5,15.8,30.03,NW,312,3.0,11.0,20,0.00,CLR,CLR,0.00,WeatherDisplay:10.37,2013-05-03 16:30:00,
2013-05-03 17:45:00,56.5,15.8,30.03,NW,304,6.0,11.0,20,0.00,CLR,CLR,0.00,WeatherDisplay:10.37,2013-05-03 16:45:00,
2013-05-03 18:00:00,56.8,16.1,30.03,WNW,298,6.0,12.0,20,0.00,CLR,CLR,0.00,WeatherDisplay:10.37,2013-05-03 17:00:00,
2013-05-03 18:15:00,56.8,16.1,30.03,WNW,294,5.0,10.0,20,0.00,CLR,CLR,0.00,WeatherDisplay:10.37,2013-05-03 17:15:00,
2013-05-03 18:30:00,57.1,12.6,30.03,NW,308,6.0,13.0,17,0.00,CLR,CLR,0.00,WeatherDisplay:10.37,2013-05-03 17:30:00,
2013-05-03 18:45:00,57.2,12.7,30.00,WNW,298,6.0,14.0,17,0.00,CLR,CLR,0.00,WeatherDisplay:10.37,2013-05-03 17:45:00,
2013-05-03 19:00:00,56.8,12.4,30.00,WNW,284,7.0,10.0,17,0.00,CLR,CLR,0.00,WeatherDisplay:10.37,2013-05-03 18:00:00,
2013-05-03 19:15:00,56.8,12.4,30.00,WNW,291,6.0,10.0,17,0.00,CLR,CLR,0.00,WeatherDisplay:10.37,2013-05-03 18:15:00,
2013-05-03 19:30:00,55.6,11.4,30.00,WNW,293,3.0,12.0,17,0.00,CLR,CLR,0.00,WeatherDisplay:10.37,2013-05-03 18:30:00,
2013-05-03 19:45:00,54.9,14.5,30.03,WNW,298,5.0,8.0,20,0.00,CLR,CLR,0.00,WeatherDisplay:10.37,2013-05-03 18:45:00,
2013-05-03 20:00:00,54.0,13.7,30.00,WNW,303,5.0,9.0,20,0.00,CLR,CLR,0.00,WeatherDisplay:10.37,2013-05-03 19:00:00,
2013-05-03 20:15:00,53.2,16.3,30.03,West,278,3.0,9.0,23,0.00,CLR,CLR,0.00,WeatherDisplay:10.37,2013-05-03 19:15:00,
2013-05-03 20:30:00,52.5,18.6,30.00,WNW,282,3.0,8.0,26,0.00,CLR,CLR,0.00,WeatherDisplay:10.37,2013-05-03 19:30:00,
2013-05-03 20:45:00,52.0,19.0,30.00,West,277,2.0,8.0,27,0.00,CLR,CLR,0.00,WeatherDisplay:10.37,2013-05-03 19:45:00,
2013-05-03 21:00:00,51.4,20.2,30.00,West,273,1.0,6.0,29,0.00,CLR,CLR,0.00,WeatherDisplay:10.37,2013-05-03 20:00:00,
2013-05-03 21:15:00,51.1,22.9,30.03,West,281,1.0,5.0,33,0.00,CLR,CLR,0.00,WeatherDisplay:10.37,2013-05-03 20:15:00,
2013-05-03 21:30:00,50.9,25.5,30.03,West,281,2.0,6.0,37,0.00,CLR,CLR,0.00,WeatherDisplay:10.37,2013-05-03 20:30:00,
2013-05-03 21:45:00,51.3,26.5,30.03,West,278,2.0,6.0,38,0.00,CLR,CLR,0.00,WeatherDisplay:10.37,2013-05-03 20:45:00,
2013-05-03 22:00:00,51.4,26.6,30.03,West,279,2.0,6.0,38,0.00,CLR,CLR,0.00,WeatherDisplay:10.37,2013-05-03 21:00:00,
2013-05-03 22:15:00,51.4,27.3,30.03,WNW,285,1.0,7.0,39,0.00,CLR,CLR,0.00,WeatherDisplay:10.37,2013-05-03 21:15:00,
2013-05-03 22:30:00,51.3,27.1,30.03,West,276,2.0,7.0,39,0.00,CLR,CLR,0.00,WeatherDisplay:10.37,2013-05-03 21:30:00,